createdAt,value
2023-05-05T00:02:09.137Z,65.46
2023-05-05T00:05:10.848Z,66.08
2023-05-05T00:08:12.482Z,65.68
2023-05-05T00:11:14.180Z,66.13
2023-05-05T00:14:17.421Z,66.25
2023-05-05T00:17:19.150Z,66.32
2023-05-05T00:20:20.947Z,66.99
2023-05-05T00:23:22.661Z,67.03
2023-05-05T00:26:24.634Z,66.95
2023-05-05T00:29:27.929Z,67.67
2023-05-05T00:32:29.698Z,67.57
2023-05-05T00:35:31.470Z,67.42
2023-05-05T00:38:33.254Z,67.55
2023-05-05T00:41:34.918Z,67.38
2023-05-05T00:44:40.460Z,68.22
2023-05-05T00:47:44.025Z,67.73
2023-05-05T00:50:45.543Z,68.47
2023-05-05T00:53:47.569Z,68.80
2023-05-05T00:56:50.053Z,68.93
2023-05-05T00:59:54.762Z,68.53
2023-05-05T01:02:56.590Z,68.37
2023-05-05T01:06:06.697Z,68.41
2023-05-05T01:09:16.349Z,68.72
2023-05-05T01:12:24.550Z,68.70
2023-05-05T01:15:33.160Z,69.77
2023-05-05T01:18:42.035Z,70.04
2023-05-05T01:21:49.693Z,69.95
2023-05-05T01:25:12.405Z,69.75
2023-05-05T01:28:27.718Z,69.93
2023-05-05T01:31:48.119Z,70.47
2023-05-05T01:34:56.015Z,70.66
2023-05-05T01:38:03.361Z,70.58
2023-05-05T01:41:11.070Z,70.36
2023-05-05T01:44:16.102Z,70.52
2023-05-05T01:47:20.890Z,70.91
2023-05-05T01:50:24.550Z,71.82
2023-05-05T01:53:28.217Z,71.91
2023-05-05T01:56:31.352Z,72.71
2023-05-05T01:59:34.187Z,72.68
2023-05-05T02:02:39.080Z,71.86
2023-05-05T02:05:43.055Z,72.35
2023-05-05T02:08:45.853Z,71.82
2023-05-05T02:11:48.468Z,72.12
2023-05-05T02:14:51.131Z,72.68
2023-05-05T02:17:55.529Z,73.69
2023-05-05T02:20:57.206Z,73.38
2023-05-05T02:23:59.135Z,73.27
2023-05-05T02:27:03.656Z,73.63
2023-05-05T02:30:09.673Z,73.36
2023-05-05T02:33:17.464Z,73.13
2023-05-05T02:36:21.734Z,73.46
2023-05-05T02:39:30.635Z,73.80
2023-05-05T02:42:35.344Z,74.32
2023-05-05T02:45:37.428Z,75.53
2023-05-05T02:48:41.300Z,75.59
2023-05-05T02:51:42.923Z,75.85
2023-05-05T02:54:44.990Z,75.78
2023-05-05T02:57:53.568Z,75.46
2023-05-05T03:01:07.909Z,75.38
2023-05-05T03:04:15.999Z,75.13
2023-05-05T03:07:24.762Z,75.90
2023-05-05T03:10:29.760Z,75.61
2023-05-05T03:13:34.606Z,75.28
2023-05-05T03:16:38.015Z,76.61
2023-05-05T03:19:42.418Z,76.43
2023-05-05T03:22:44.594Z,76.38
2023-05-05T03:25:47.394Z,76.33
2023-05-05T03:28:49.053Z,76.32
2023-05-05T03:31:50.841Z,76.68
2023-05-05T03:34:54.193Z,76.21
2023-05-05T03:37:56.052Z,76.14
2023-05-05T03:41:00.984Z,77.22
2023-05-05T03:44:03.069Z,77.37
2023-05-05T03:47:05.272Z,77.06
2023-05-05T03:50:09.345Z,78.09
2023-05-05T03:53:11.457Z,77.18
2023-05-05T03:56:14.199Z,76.81
2023-05-05T03:59:15.799Z,77.29
2023-05-05T04:02:18.828Z,77.71
2023-05-05T04:05:21.971Z,77.36
2023-05-05T04:08:23.618Z,77.30
2023-05-05T04:11:25.377Z,78.14
2023-05-05T04:14:27.038Z,78.74
2023-05-05T04:17:28.697Z,78.26
2023-05-05T04:20:34.520Z,76.57
2023-05-05T04:23:36.134Z,78.23
2023-05-05T04:26:39.518Z,76.74
2023-05-05T04:29:41.319Z,75.68
2023-05-05T04:32:42.964Z,74.37
2023-05-05T04:35:46.503Z,73.51
2023-05-05T04:38:48.144Z,71.78
2023-05-05T04:41:49.857Z,70.45
2023-05-05T04:44:51.616Z,68.98
2023-05-05T04:47:53.585Z,68.29
2023-05-05T04:50:56.664Z,67.38
2023-05-05T04:53:58.592Z,67.90
2023-05-05T04:57:00.180Z,67.72
2023-05-05T05:00:01.913Z,67.76
2023-05-05T05:03:05.584Z,68.41
2023-05-05T05:06:08.743Z,67.59
2023-05-05T05:09:10.461Z,68.41
2023-05-05T05:12:12.209Z,66.65
2023-05-05T05:15:13.989Z,65.49
2023-05-05T05:18:15.656Z,63.64
2023-05-05T05:21:21.338Z,63.19
2023-05-05T05:24:23.004Z,63.18
2023-05-05T05:27:24.715Z,61.68
2023-05-05T05:30:26.384Z,60.61
2023-05-05T05:33:28.033Z,61.30
2023-05-05T05:36:31.384Z,59.54
2023-05-05T05:39:33.334Z,58.46
2023-05-05T05:42:34.983Z,58.69
2023-05-05T05:45:36.635Z,59.11
2023-05-05T05:48:38.260Z,57.87
2023-05-05T05:51:41.178Z,57.43
2023-05-05T05:54:42.830Z,57.84
2023-05-05T05:57:44.780Z,57.32
2023-05-05T06:00:48.076Z,56.36
2023-05-05T06:03:49.912Z,56.85
2023-05-05T06:06:52.948Z,56.17
2023-05-05T06:09:55.037Z,56.64
2023-05-05T06:12:56.707Z,54.81
2023-05-05T06:15:58.880Z,54.72
2023-05-05T06:19:01.061Z,53.92
2023-05-05T06:22:04.081Z,55.35
2023-05-05T06:25:06.710Z,55.03
2023-05-05T06:28:08.345Z,54.38
2023-05-05T06:31:10.003Z,53.37
2023-05-05T06:34:11.912Z,53.48
2023-05-05T06:37:14.940Z,55.00
2023-05-05T06:40:16.741Z,53.89
2023-05-05T06:43:18.448Z,53.35
2023-05-05T06:46:20.404Z,52.08
2023-05-05T06:49:22.088Z,52.00
2023-05-05T06:52:25.383Z,53.13
2023-05-05T06:55:27.166Z,51.97
2023-05-05T06:58:29.289Z,51.45
2023-05-05T07:01:30.949Z,51.16
2023-05-05T07:04:33.091Z,51.49
2023-05-05T07:07:36.147Z,51.95
2023-05-05T07:10:37.845Z,51.92
2023-05-05T07:13:39.534Z,50.92
2023-05-05T07:16:41.445Z,51.94
2023-05-05T07:19:43.166Z,51.50
2023-05-05T07:22:46.119Z,51.52
2023-05-05T07:25:47.782Z,52.12
2023-05-05T07:28:49.468Z,51.82
2023-05-05T07:31:51.483Z,51.02
2023-05-05T07:34:53.797Z,51.18
2023-05-05T07:37:56.838Z,49.90
2023-05-05T07:40:58.513Z,50.04
2023-05-05T07:44:00.141Z,50.14
2023-05-05T07:47:01.823Z,50.62
2023-05-05T07:50:03.880Z,50.23
2023-05-05T07:53:14.465Z,50.50
2023-05-05T07:56:16.659Z,51.03
2023-05-05T07:59:18.297Z,51.60
2023-05-05T08:02:22.490Z,50.44
2023-05-05T08:05:24.677Z,48.77
2023-05-05T08:08:28.260Z,51.36
2023-05-05T08:11:29.933Z,50.84
2023-05-05T08:14:31.573Z,50.81
2023-05-05T08:17:43.796Z,48.44
2023-05-05T08:20:47.210Z,49.47
2023-05-05T08:23:53.193Z,50.57
2023-05-05T08:26:55.216Z,49.81
2023-05-05T08:29:57.323Z,49.72
2023-05-05T08:32:58.970Z,51.95
2023-05-05T08:36:00.941Z,53.11
2023-05-05T08:39:04.220Z,51.83
2023-05-05T08:42:06.717Z,51.06
2023-05-05T08:45:10.679Z,51.35
2023-05-05T08:48:16.754Z,49.09
2023-05-05T08:51:19.718Z,50.88
2023-05-05T08:54:27.139Z,52.99
2023-05-05T08:57:41.167Z,49.77
2023-05-05T09:00:45.348Z,50.29
2023-05-05T09:03:46.960Z,49.13
2023-05-05T09:06:48.867Z,48.76
2023-05-05T09:09:52.292Z,50.77
2023-05-05T09:12:53.987Z,51.69
2023-05-05T09:15:55.892Z,53.01
2023-05-05T09:19:04.363Z,49.94
2023-05-05T09:22:06.325Z,52.61
2023-05-05T09:25:10.967Z,50.73
2023-05-05T09:28:13.941Z,50.38
2023-05-05T09:31:15.747Z,48.41
2023-05-05T09:34:17.496Z,48.02
2023-05-05T09:37:27.170Z,49.07
2023-05-05T09:40:44.706Z,49.02
2023-05-05T09:43:51.074Z,50.17
2023-05-05T09:46:53.092Z,48.91
2023-05-05T09:49:58.047Z,51.07
2023-05-05T09:53:01.407Z,52.07
2023-05-05T09:56:05.279Z,52.13
2023-05-05T09:59:10.514Z,48.69
2023-05-05T10:02:13.479Z,48.85
2023-05-05T10:05:16.622Z,47.93
2023-05-05T10:08:18.755Z,46.95
2023-05-05T10:11:21.981Z,46.07
2023-05-05T10:14:24.091Z,46.44
2023-05-05T10:17:30.293Z,47.25
2023-05-05T10:20:33.193Z,47.36
2023-05-05T10:23:39.176Z,47.87
2023-05-05T10:26:44.142Z,45.72
2023-05-05T10:29:52.215Z,45.73
2023-05-05T10:33:09.141Z,46.40
2023-05-05T10:36:20.252Z,46.50
2023-05-05T10:39:23.700Z,46.54
2023-05-05T10:42:26.747Z,47.21
2023-05-05T10:45:28.818Z,46.71
2023-05-05T10:48:35.738Z,44.68
2023-05-05T10:51:46.903Z,46.84
2023-05-05T10:54:55.925Z,45.99
2023-05-05T10:57:58.933Z,45.22
2023-05-05T11:01:00.705Z,43.53
2023-05-05T11:04:22.760Z,41.80
2023-05-05T11:07:24.909Z,44.49
2023-05-05T11:10:26.782Z,43.83
2023-05-05T11:13:32.214Z,42.03
2023-05-05T11:16:44.935Z,43.89
2023-05-05T11:19:46.790Z,39.78
2023-05-05T11:23:22.677Z,40.18
2023-05-05T11:26:49.962Z,41.75
2023-05-05T11:30:06.196Z,40.98
2023-05-05T11:33:26.905Z,39.31
2023-05-05T11:36:40.593Z,38.13
2023-05-05T11:39:58.510Z,38.84
2023-05-05T11:43:06.627Z,39.76
2023-05-05T11:46:13.136Z,38.99
2023-05-05T11:49:26.719Z,40.68
2023-05-05T11:52:28.318Z,38.94
2023-05-05T11:55:30.217Z,38.52
2023-05-05T11:58:31.875Z,39.40
2023-05-05T12:01:35.362Z,39.41
2023-05-05T12:04:39.687Z,38.36
2023-05-05T12:07:42.475Z,38.29
2023-05-05T12:10:44.281Z,38.20
2023-05-05T12:13:46.674Z,37.56
2023-05-05T12:16:56.425Z,37.27
2023-05-05T12:19:58.066Z,37.80
2023-05-05T12:23:03.487Z,37.47
2023-05-05T12:26:05.389Z,38.58
2023-05-05T12:29:07.435Z,38.10
2023-05-05T12:32:18.790Z,38.81
2023-05-05T12:35:20.700Z,39.31
2023-05-05T12:38:22.689Z,38.53
2023-05-05T12:41:24.421Z,38.96
2023-05-05T12:44:34.914Z,37.94
2023-05-05T12:47:38.029Z,38.41
2023-05-05T12:50:40.101Z,38.24
2023-05-05T12:53:42.419Z,39.03
2023-05-05T12:56:45.883Z,37.08
2023-05-05T12:59:48.327Z,37.57
2023-05-05T13:02:51.720Z,38.79
2023-05-05T13:05:53.542Z,37.07
2023-05-05T13:08:55.505Z,37.75
2023-05-05T13:11:57.141Z,37.17
2023-05-05T13:14:58.700Z,36.60
2023-05-05T13:18:01.933Z,36.12
2023-05-05T13:21:03.874Z,35.90
2023-05-05T13:24:21.389Z,36.51
2023-05-05T13:27:27.970Z,36.01
2023-05-05T13:30:29.918Z,35.70
2023-05-05T13:33:34.976Z,35.58
2023-05-05T13:36:36.784Z,37.13
2023-05-05T13:39:38.655Z,36.84
2023-05-05T13:42:40.268Z,38.10
2023-05-05T13:45:42.171Z,37.34
2023-05-05T13:48:45.326Z,34.87
2023-05-05T13:51:47.375Z,36.52
2023-05-05T13:54:49.271Z,35.75
2023-05-05T13:57:51.145Z,36.68
2023-05-05T14:00:53.079Z,34.97
2023-05-05T14:03:57.635Z,34.48
2023-05-05T14:06:59.549Z,32.68
2023-05-05T14:10:01.210Z,34.81
2023-05-05T14:13:03.017Z,35.31
2023-05-05T14:16:05.280Z,34.54
2023-05-05T14:19:08.289Z,35.47
2023-05-05T14:22:09.704Z,35.06
2023-05-05T14:25:11.589Z,35.35
2023-05-05T14:28:13.746Z,34.54
2023-05-05T14:31:15.470Z,35.77
2023-05-05T14:34:18.480Z,35.94
2023-05-05T14:37:19.886Z,34.92
2023-05-05T14:40:21.793Z,34.85
2023-05-05T14:43:25.706Z,35.88
2023-05-05T14:46:30.032Z,36.04
2023-05-05T14:49:33.475Z,36.11
2023-05-05T14:52:35.711Z,37.11
2023-05-05T14:55:38.908Z,36.02
2023-05-05T14:58:40.557Z,35.60
2023-05-05T15:01:42.230Z,37.14
2023-05-05T15:04:45.420Z,36.24
2023-05-05T15:07:47.062Z,36.30
2023-05-05T15:10:49.077Z,36.13
2023-05-05T15:13:50.959Z,36.05
2023-05-05T15:16:52.816Z,36.89
2023-05-05T15:19:55.769Z,36.07
2023-05-05T15:22:57.352Z,36.74
2023-05-05T15:26:04.545Z,36.11
2023-05-05T15:29:06.302Z,36.30
2023-05-05T15:32:07.979Z,35.12
2023-05-05T15:35:11.288Z,35.77
2023-05-05T15:38:15.878Z,35.62
2023-05-05T15:41:17.504Z,36.63
2023-05-05T15:44:19.462Z,36.91
2023-05-05T15:47:21.370Z,37.76
2023-05-05T15:50:24.638Z,38.35
2023-05-05T15:53:26.416Z,36.29
2023-05-05T15:56:28.409Z,36.72
2023-05-05T15:59:30.210Z,37.33
2023-05-05T16:02:31.947Z,38.72
2023-05-05T16:05:35.017Z,37.81
2023-05-05T16:08:36.974Z,36.55
2023-05-05T16:11:38.991Z,36.37
2023-05-05T16:14:40.766Z,37.18
2023-05-05T16:17:42.504Z,37.26
2023-05-05T16:20:45.593Z,37.25
2023-05-05T16:23:47.036Z,37.65
2023-05-05T16:26:48.827Z,38.29
2023-05-05T16:29:51.225Z,39.30
2023-05-05T16:32:53.145Z,39.23
2023-05-05T16:35:56.486Z,38.75
2023-05-05T16:38:58.439Z,39.24
2023-05-05T16:45:02.340Z,39.63
2023-05-05T16:48:06.808Z,37.93
2023-05-05T16:51:12.137Z,38.48
2023-05-05T16:54:14.122Z,39.03
2023-05-05T16:57:16.096Z,37.74
2023-05-05T17:00:18.071Z,38.49
2023-05-05T17:03:20.172Z,39.62
2023-05-05T17:06:23.246Z,39.26
2023-05-05T17:09:25.016Z,39.27
2023-05-05T17:12:27.033Z,40.47
2023-05-05T17:15:28.717Z,41.36
2023-05-05T17:18:30.369Z,40.80
2023-05-05T17:21:33.494Z,41.51
2023-05-05T17:24:34.997Z,40.64
2023-05-05T17:27:36.670Z,40.14
2023-05-05T17:30:38.301Z,40.83
2023-05-05T17:33:39.982Z,41.80
2023-05-05T17:36:43.308Z,42.36
2023-05-05T17:39:45.239Z,43.09
2023-05-05T17:42:46.918Z,43.82
2023-05-05T17:45:48.691Z,44.66
2023-05-05T17:48:50.975Z,45.08
2023-05-05T17:51:53.978Z,45.65
2023-05-05T17:54:55.690Z,46.82
2023-05-05T17:57:57.481Z,47.82
2023-05-05T18:00:59.617Z,48.54
2023-05-05T18:04:01.309Z,49.32
2023-05-05T18:07:04.855Z,50.15
2023-05-05T18:10:07.660Z,50.94
2023-05-05T18:13:09.622Z,51.25
2023-05-05T18:16:11.373Z,51.67
2023-05-05T18:19:12.978Z,52.30
2023-05-05T18:22:16.044Z,52.58
2023-05-05T18:25:17.881Z,53.04
2023-05-05T18:28:19.513Z,53.86
2023-05-05T18:31:21.173Z,54.63
2023-05-05T18:34:22.892Z,55.47
2023-05-05T18:37:26.101Z,56.36
2023-05-05T18:40:27.865Z,56.94
2023-05-05T18:43:30.610Z,57.38
2023-05-05T18:46:32.517Z,58.40
2023-05-05T18:49:34.297Z,58.80
2023-05-05T18:52:37.288Z,59.69
2023-05-05T18:55:39.029Z,59.69
2023-05-05T18:58:40.977Z,60.27
2023-05-05T19:01:44.626Z,60.68
2023-05-05T19:04:46.765Z,60.88
2023-05-05T19:07:50.175Z,60.26
2023-05-05T19:10:51.632Z,60.27
2023-05-05T19:13:53.233Z,60.42
2023-05-05T19:16:55.055Z,59.95
2023-05-05T19:19:56.953Z,60.29
2023-05-05T19:22:59.986Z,61.30
2023-05-05T19:26:02.172Z,62.29
2023-05-05T19:29:03.906Z,63.12
2023-05-05T19:32:06.314Z,63.84
2023-05-05T19:35:08.865Z,64.26
2023-05-05T19:38:12.216Z,64.12
2023-05-05T19:41:13.903Z,64.91
2023-05-05T19:44:16.090Z,65.63
2023-05-05T19:47:17.780Z,66.01
2023-05-05T19:50:19.658Z,66.69
2023-05-05T19:53:22.745Z,66.18
2023-05-05T19:56:24.589Z,65.98
2023-05-05T19:59:26.632Z,66.42
2023-05-05T20:02:28.671Z,66.56
2023-05-05T20:05:30.537Z,67.13
2023-05-05T20:08:33.585Z,67.35
2023-05-05T20:11:35.336Z,66.90
2023-05-05T20:14:36.995Z,67.30
2023-05-05T20:17:38.981Z,67.97
2023-05-05T20:20:40.764Z,68.54
2023-05-05T20:23:44.280Z,68.93
2023-05-05T20:26:45.929Z,68.81
2023-05-05T20:29:47.564Z,69.90
2023-05-05T20:32:49.257Z,69.59
2023-05-05T20:35:52.509Z,70.18
2023-05-05T20:38:55.643Z,70.13
2023-05-05T20:41:57.467Z,70.53
2023-05-05T20:45:00.921Z,70.36
2023-05-05T20:48:03.940Z,70.79
2023-05-05T20:51:06.055Z,70.76
2023-05-05T20:54:09.474Z,70.73
2023-05-05T20:57:10.920Z,71.12
2023-05-05T21:00:12.959Z,71.37
2023-05-05T21:03:14.999Z,71.84
2023-05-05T21:06:16.797Z,71.47
2023-05-05T21:09:19.798Z,71.30
2023-05-05T21:12:21.461Z,72.00
2023-05-05T21:15:23.342Z,72.96
2023-05-05T21:18:25.012Z,72.36
2023-05-05T21:21:26.721Z,72.76
2023-05-05T21:24:29.746Z,73.18
2023-05-05T21:27:31.362Z,74.80
2023-05-05T21:30:33.258Z,74.66
2023-05-05T21:33:34.906Z,74.18
2023-05-05T21:36:36.831Z,73.73
2023-05-05T21:39:39.848Z,74.42
2023-05-05T21:42:42.162Z,74.79
2023-05-05T21:45:43.949Z,74.40
2023-05-05T21:48:46.449Z,74.08
2023-05-05T21:51:48.125Z,73.88
2023-05-05T21:54:51.173Z,74.25
2023-05-05T21:57:52.826Z,74.44
2023-05-05T22:00:54.472Z,74.05
2023-05-05T22:03:56.495Z,74.97
2023-05-05T22:06:58.424Z,74.36
2023-05-05T22:10:01.762Z,74.39
2023-05-05T22:13:03.453Z,74.62
2023-05-05T22:16:06.194Z,75.59
2023-05-05T22:19:07.861Z,75.50
2023-05-05T22:22:09.479Z,75.27
2023-05-05T22:25:13.112Z,75.53
2023-05-05T22:28:14.820Z,76.16
2023-05-05T22:31:16.696Z,75.21
2023-05-05T22:34:18.416Z,76.14
2023-05-05T22:37:20.281Z,76.17
2023-05-05T22:40:23.430Z,76.50
2023-05-05T22:43:25.202Z,76.58
2023-05-05T22:46:26.903Z,77.01
2023-05-05T22:49:28.697Z,77.70
2023-05-05T22:52:30.369Z,77.91
2023-05-05T22:55:33.394Z,77.42
2023-05-05T22:58:35.096Z,77.40
2023-05-05T23:01:37.079Z,77.87
2023-05-05T23:04:38.843Z,77.49
2023-05-05T23:07:40.761Z,77.85
2023-05-05T23:10:43.816Z,78.71
2023-05-05T23:13:45.440Z,79.01
2023-05-05T23:16:47.170Z,79.07
2023-05-05T23:19:49.112Z,78.97
2023-05-05T23:22:51.140Z,78.94
2023-05-05T23:25:54.144Z,78.84
2023-05-05T23:28:56.214Z,78.44
2023-05-05T23:31:58.402Z,78.75
2023-05-05T23:35:00.302Z,79.02
2023-05-05T23:38:02.228Z,79.49
2023-05-05T23:41:05.591Z,79.58
2023-05-05T23:44:07.557Z,79.40
2023-05-05T23:47:09.478Z,79.09
2023-05-05T23:50:11.594Z,79.05
2023-05-05T23:53:13.626Z,79.28
2023-05-05T23:56:16.667Z,79.22
2023-05-05T23:59:18.333Z,79.59
